sensor_id;sensor_type;location;lat;lon;timestamp;P1;durP1;ratioP1;P2;durP2;ratioP2
73816;SDS011;62146;53.232;-1.304;2022-11-20T00:01:26;22.33;;;12.60;;
73816;SDS011;62146;53.232;-1.304;2022-11-20T00:03:54;24.92;;;12.48;;
73816;SDS011;62146;53.232;-1.304;2022-11-20T00:06:22;23.83;;;12.63;;
73816;SDS011;62146;53.232;-1.304;2022-11-20T00:08:49;21.73;;;12.93;;
73816;SDS011;62146;53.232;-1.304;2022-11-20T00:11:17;23.70;;;12.50;;
73816;SDS011;62146;53.232;-1.304;2022-11-20T00:13:46;23.83;;;12.55;;
73816;SDS011;62146;53.232;-1.304;2022-11-20T00:16:15;23.05;;;13.23;;
73816;SDS011;62146;53.232;-1.304;2022-11-20T00:18:43;23.65;;;12.50;;
73816;SDS011;62146;53.232;-1.304;2022-11-20T00:21:11;21.90;;;12.88;;
73816;SDS011;62146;53.232;-1.304;2022-11-20T00:23:40;25.13;;;13.20;;
73816;SDS011;62146;53.232;-1.304;2022-11-20T00:26:08;23.83;;;12.20;;
73816;SDS011;62146;53.232;-1.304;2022-11-20T00:28:36;22.00;;;12.27;;
73816;SDS011;62146;53.232;-1.304;2022-11-20T00:31:07;22.45;;;12.18;;
73816;SDS011;62146;53.232;-1.304;2022-11-20T00:33:34;23.40;;;11.55;;
73816;SDS011;62146;53.232;-1.304;2022-11-20T00:36:07;23.20;;;11.77;;
73816;SDS011;62146;53.232;-1.304;2022-11-20T00:38:36;23.75;;;12.80;;
73816;SDS011;62146;53.232;-1.304;2022-11-20T00:41:04;22.23;;;13.00;;
73816;SDS011;62146;53.232;-1.304;2022-11-20T00:43:33;24.17;;;12.63;;
73816;SDS011;62146;53.232;-1.304;2022-11-20T00:46:01;22.23;;;11.93;;
73816;SDS011;62146;53.232;-1.304;2022-11-20T00:48:29;24.67;;;12.67;;
73816;SDS011;62146;53.232;-1.304;2022-11-20T00:50:56;25.17;;;12.48;;
73816;SDS011;62146;53.232;-1.304;2022-11-20T00:53:24;21.77;;;11.65;;
73816;SDS011;62146;53.232;-1.304;2022-11-20T00:55:58;19.52;;;11.73;;
73816;SDS011;62146;53.232;-1.304;2022-11-20T00:58:30;23.40;;;11.85;;
73816;SDS011;62146;53.232;-1.304;2022-11-20T01:01:00;21.13;;;11.97;;
73816;SDS011;62146;53.232;-1.304;2022-11-20T01:03:32;25.20;;;12.13;;
73816;SDS011;62146;53.232;-1.304;2022-11-20T01:05:59;22.20;;;11.85;;
73816;SDS011;62146;53.232;-1.304;2022-11-20T01:08:31;21.75;;;11.70;;
73816;SDS011;62146;53.232;-1.304;2022-11-20T01:10:59;20.85;;;10.82;;
73816;SDS011;62146;53.232;-1.304;2022-11-20T01:13:33;23.93;;;11.53;;
73816;SDS011;62146;53.232;-1.304;2022-11-20T01:18:30;20.02;;;11.35;;
73816;SDS011;62146;53.232;-1.304;2022-11-20T01:21:00;23.20;;;11.70;;
73816;SDS011;62146;53.232;-1.304;2022-11-20T01:23:35;22.83;;;11.88;;
73816;SDS011;62146;53.232;-1.304;2022-11-20T01:26:04;22.50;;;11.53;;
73816;SDS011;62146;53.232;-1.304;2022-11-20T01:28:33;22.50;;;10.85;;
73816;SDS011;62146;53.232;-1.304;2022-11-20T01:31:00;20.45;;;10.93;;
73816;SDS011;62146;53.232;-1.304;2022-11-20T01:33:27;20.05;;;10.85;;
73816;SDS011;62146;53.232;-1.304;2022-11-20T01:36:02;21.38;;;10.88;;
73816;SDS011;62146;53.232;-1.304;2022-11-20T01:38:30;18.47;;;10.37;;
73816;SDS011;62146;53.232;-1.304;2022-11-20T01:40:57;19.20;;;11.48;;
73816;SDS011;62146;53.232;-1.304;2022-11-20T01:43:23;21.58;;;10.88;;
73816;SDS011;62146;53.232;-1.304;2022-11-20T01:48:52;21.35;;;10.55;;
73816;SDS011;62146;53.232;-1.304;2022-11-20T01:51:42;21.00;;;10.93;;
73816;SDS011;62146;53.232;-1.304;2022-11-20T01:54:19;19.33;;;10.52;;
73816;SDS011;62146;53.232;-1.304;2022-11-20T01:56:51;19.02;;;10.15;;
73816;SDS011;62146;53.232;-1.304;2022-11-20T01:59:21;20.80;;;11.07;;
73816;SDS011;62146;53.232;-1.304;2022-11-20T02:01:50;23.90;;;11.23;;
73816;SDS011;62146;53.232;-1.304;2022-11-20T02:04:17;19.30;;;10.00;;
73816;SDS011;62146;53.232;-1.304;2022-11-20T02:07:00;21.52;;;10.48;;
73816;SDS011;62146;53.232;-1.304;2022-11-20T02:09:28;18.65;;;10.40;;
73816;SDS011;62146;53.232;-1.304;2022-11-20T02:11:55;20.38;;;10.38;;
73816;SDS011;62146;53.232;-1.304;2022-11-20T02:14:23;20.08;;;10.30;;
73816;SDS011;62146;53.232;-1.304;2022-11-20T02:16:50;17.70;;;9.93;;
73816;SDS011;62146;53.232;-1.304;2022-11-20T02:19:30;21.63;;;10.30;;
73816;SDS011;62146;53.232;-1.304;2022-11-20T02:24:30;19.98;;;10.18;;
73816;SDS011;62146;53.232;-1.304;2022-11-20T02:26:59;21.33;;;9.68;;
73816;SDS011;62146;53.232;-1.304;2022-11-20T02:29:32;18.43;;;9.47;;
73816;SDS011;62146;53.232;-1.304;2022-11-20T02:32:04;19.65;;;9.52;;
73816;SDS011;62146;53.232;-1.304;2022-11-20T02:34:31;16.88;;;8.40;;
73816;SDS011;62146;53.232;-1.304;2022-11-20T02:36:58;20.25;;;9.18;;
73816;SDS011;62146;53.232;-1.304;2022-11-20T02:39:26;19.55;;;9.50;;
73816;SDS011;62146;53.232;-1.304;2022-11-20T02:41:54;17.60;;;9.63;;
73816;SDS011;62146;53.232;-1.304;2022-11-20T02:44:22;24.08;;;10.63;;
73816;SDS011;62146;53.232;-1.304;2022-11-20T02:46:48;20.17;;;10.13;;
73816;SDS011;62146;53.232;-1.304;2022-11-20T02:49:15;17.83;;;8.90;;
73816;SDS011;62146;53.232;-1.304;2022-11-20T02:51:43;16.02;;;8.45;;
73816;SDS011;62146;53.232;-1.304;2022-11-20T02:54:09;19.17;;;8.90;;
73816;SDS011;62146;53.232;-1.304;2022-11-20T02:56:37;20.73;;;8.95;;
73816;SDS011;62146;53.232;-1.304;2022-11-20T02:59:05;17.80;;;8.27;;
73816;SDS011;62146;53.232;-1.304;2022-11-20T03:01:31;17.15;;;8.48;;
73816;SDS011;62146;53.232;-1.304;2022-11-20T03:03:58;18.88;;;8.25;;
73816;SDS011;62146;53.232;-1.304;2022-11-20T03:06:24;18.10;;;9.10;;
73816;SDS011;62146;53.232;-1.304;2022-11-20T03:08:51;17.85;;;8.30;;
73816;SDS011;62146;53.232;-1.304;2022-11-20T03:11:17;17.65;;;8.77;;
73816;SDS011;62146;53.232;-1.304;2022-11-20T03:13:44;17.98;;;8.65;;
73816;SDS011;62146;53.232;-1.304;2022-11-20T03:16:20;16.77;;;8.00;;
73816;SDS011;62146;53.232;-1.304;2022-11-20T03:18:48;19.97;;;8.30;;
73816;SDS011;62146;53.232;-1.304;2022-11-20T03:21:15;19.15;;;8.50;;
73816;SDS011;62146;53.232;-1.304;2022-11-20T03:23:42;16.02;;;7.65;;
73816;SDS011;62146;53.232;-1.304;2022-11-20T03:26:13;17.92;;;8.38;;
73816;SDS011;62146;53.232;-1.304;2022-11-20T03:28:45;16.60;;;7.65;;
73816;SDS011;62146;53.232;-1.304;2022-11-20T03:31:14;15.97;;;7.43;;
73816;SDS011;62146;53.232;-1.304;2022-11-20T03:33:42;17.65;;;6.82;;
73816;SDS011;62146;53.232;-1.304;2022-11-20T03:36:10;13.82;;;6.80;;
73816;SDS011;62146;53.232;-1.304;2022-11-20T03:38:39;15.82;;;7.63;;
73816;SDS011;62146;53.232;-1.304;2022-11-20T03:41:07;15.52;;;6.65;;
73816;SDS011;62146;53.232;-1.304;2022-11-20T03:43:36;15.73;;;7.67;;
73816;SDS011;62146;53.232;-1.304;2022-11-20T03:46:02;14.35;;;6.90;;
73816;SDS011;62146;53.232;-1.304;2022-11-20T03:48:30;15.32;;;7.25;;
73816;SDS011;62146;53.232;-1.304;2022-11-20T03:51:07;14.57;;;7.03;;
73816;SDS011;62146;53.232;-1.304;2022-11-20T03:53:33;16.17;;;6.78;;
73816;SDS011;62146;53.232;-1.304;2022-11-20T03:56:00;15.53;;;6.43;;
73816;SDS011;62146;53.232;-1.304;2022-11-20T03:58:26;13.00;;;6.78;;
73816;SDS011;62146;53.232;-1.304;2022-11-20T04:00:53;16.30;;;6.35;;
73816;SDS011;62146;53.232;-1.304;2022-11-20T04:03:19;15.00;;;6.72;;
73816;SDS011;62146;53.232;-1.304;2022-11-20T04:05:46;12.15;;;6.20;;
73816;SDS011;62146;53.232;-1.304;2022-11-20T04:08:12;11.33;;;5.97;;
73816;SDS011;62146;53.232;-1.304;2022-11-20T04:10:39;13.52;;;5.90;;
73816;SDS011;62146;53.232;-1.304;2022-11-20T04:13:05;11.52;;;5.80;;
73816;SDS011;62146;53.232;-1.304;2022-11-20T04:15:32;11.35;;;5.72;;
73816;SDS011;62146;53.232;-1.304;2022-11-20T04:18:03;12.82;;;5.75;;
73816;SDS011;62146;53.232;-1.304;2022-11-20T04:20:30;11.27;;;5.10;;
73816;SDS011;62146;53.232;-1.304;2022-11-20T04:22:56;11.30;;;5.55;;
73816;SDS011;62146;53.232;-1.304;2022-11-20T04:25:23;13.00;;;5.50;;
73816;SDS011;62146;53.232;-1.304;2022-11-20T04:27:49;11.45;;;5.30;;
73816;SDS011;62146;53.232;-1.304;2022-11-20T04:30:16;11.35;;;5.40;;
73816;SDS011;62146;53.232;-1.304;2022-11-20T04:32:42;10.53;;;4.83;;
73816;SDS011;62146;53.232;-1.304;2022-11-20T04:38:56;9.00;;;5.15;;
73816;SDS011;62146;53.232;-1.304;2022-11-20T04:41:32;10.15;;;4.60;;
73816;SDS011;62146;53.232;-1.304;2022-11-20T04:44:01;11.13;;;4.88;;
73816;SDS011;62146;53.232;-1.304;2022-11-20T04:46:51;9.40;;;4.37;;
73816;SDS011;62146;53.232;-1.304;2022-11-20T04:49:16;10.88;;;4.65;;
73816;SDS011;62146;53.232;-1.304;2022-11-20T04:51:42;12.52;;;4.43;;
73816;SDS011;62146;53.232;-1.304;2022-11-20T04:54:10;11.38;;;4.55;;
73816;SDS011;62146;53.232;-1.304;2022-11-20T04:56:37;11.60;;;5.07;;
73816;SDS011;62146;53.232;-1.304;2022-11-20T04:59:04;11.87;;;4.83;;
73816;SDS011;62146;53.232;-1.304;2022-11-20T05:01:30;11.35;;;4.70;;
73816;SDS011;62146;53.232;-1.304;2022-11-20T05:03:58;9.73;;;4.28;;
73816;SDS011;62146;53.232;-1.304;2022-11-20T05:06:25;9.52;;;4.13;;
73816;SDS011;62146;53.232;-1.304;2022-11-20T05:08:51;11.63;;;4.38;;
73816;SDS011;62146;53.232;-1.304;2022-11-20T05:11:19;9.93;;;4.40;;
73816;SDS011;62146;53.232;-1.304;2022-11-20T05:13:47;9.73;;;4.25;;
73816;SDS011;62146;53.232;-1.304;2022-11-20T05:16:21;9.57;;;4.43;;
73816;SDS011;62146;53.232;-1.304;2022-11-20T05:18:50;10.55;;;4.47;;
73816;SDS011;62146;53.232;-1.304;2022-11-20T05:21:17;9.52;;;4.13;;
73816;SDS011;62146;53.232;-1.304;2022-11-20T05:23:45;9.33;;;4.27;;
73816;SDS011;62146;53.232;-1.304;2022-11-20T05:26:13;9.18;;;4.05;;
73816;SDS011;62146;53.232;-1.304;2022-11-20T05:28:41;9.88;;;4.45;;
73816;SDS011;62146;53.232;-1.304;2022-11-20T05:31:09;8.02;;;3.97;;
73816;SDS011;62146;53.232;-1.304;2022-11-20T05:33:39;8.40;;;4.00;;
73816;SDS011;62146;53.232;-1.304;2022-11-20T05:36:07;9.47;;;3.97;;
73816;SDS011;62146;53.232;-1.304;2022-11-20T05:38:34;10.40;;;4.13;;
73816;SDS011;62146;53.232;-1.304;2022-11-20T05:41:08;8.93;;;4.00;;
73816;SDS011;62146;53.232;-1.304;2022-11-20T05:43:40;10.18;;;4.15;;
73816;SDS011;62146;53.232;-1.304;2022-11-20T05:46:08;11.15;;;4.05;;
73816;SDS011;62146;53.232;-1.304;2022-11-20T05:48:37;8.37;;;3.67;;
73816;SDS011;62146;53.232;-1.304;2022-11-20T05:51:05;7.60;;;3.47;;
73816;SDS011;62146;53.232;-1.304;2022-11-20T05:53:33;7.05;;;3.10;;
73816;SDS011;62146;53.232;-1.304;2022-11-20T05:56:01;8.73;;;3.40;;
73816;SDS011;62146;53.232;-1.304;2022-11-20T05:58:30;7.80;;;3.10;;
73816;SDS011;62146;53.232;-1.304;2022-11-20T06:01:04;7.40;;;3.00;;
73816;SDS011;62146;53.232;-1.304;2022-11-20T06:03:32;5.78;;;2.60;;
73816;SDS011;62146;53.232;-1.304;2022-11-20T06:05:59;6.70;;;3.00;;
73816;SDS011;62146;53.232;-1.304;2022-11-20T06:08:26;5.15;;;2.63;;
73816;SDS011;62146;53.232;-1.304;2022-11-20T06:10:53;6.40;;;3.08;;
73816;SDS011;62146;53.232;-1.304;2022-11-20T06:13:19;7.07;;;2.80;;
73816;SDS011;62146;53.232;-1.304;2022-11-20T06:15:49;4.97;;;2.13;;
73816;SDS011;62146;53.232;-1.304;2022-11-20T06:18:16;5.57;;;2.30;;
73816;SDS011;62146;53.232;-1.304;2022-11-20T06:20:44;4.93;;;2.40;;
73816;SDS011;62146;53.232;-1.304;2022-11-20T06:23:11;5.82;;;2.72;;
73816;SDS011;62146;53.232;-1.304;2022-11-20T06:25:41;5.60;;;2.60;;
73816;SDS011;62146;53.232;-1.304;2022-11-20T06:28:09;5.60;;;2.28;;
73816;SDS011;62146;53.232;-1.304;2022-11-20T06:30:35;4.63;;;2.30;;
73816;SDS011;62146;53.232;-1.304;2022-11-20T06:33:02;5.82;;;2.10;;
73816;SDS011;62146;53.232;-1.304;2022-11-20T06:35:28;6.10;;;2.10;;
73816;SDS011;62146;53.232;-1.304;2022-11-20T06:37:55;4.70;;;2.37;;
73816;SDS011;62146;53.232;-1.304;2022-11-20T06:40:22;4.22;;;1.90;;
73816;SDS011;62146;53.232;-1.304;2022-11-20T06:42:48;4.25;;;1.80;;
73816;SDS011;62146;53.232;-1.304;2022-11-20T06:45:15;4.95;;;2.00;;
73816;SDS011;62146;53.232;-1.304;2022-11-20T06:47:42;4.10;;;1.95;;
73816;SDS011;62146;53.232;-1.304;2022-11-20T06:50:08;4.33;;;1.97;;
73816;SDS011;62146;53.232;-1.304;2022-11-20T06:52:35;4.30;;;2.00;;
73816;SDS011;62146;53.232;-1.304;2022-11-20T06:55:08;4.60;;;2.25;;
73816;SDS011;62146;53.232;-1.304;2022-11-20T06:57:35;3.97;;;2.10;;
73816;SDS011;62146;53.232;-1.304;2022-11-20T07:00:01;4.93;;;2.38;;
73816;SDS011;62146;53.232;-1.304;2022-11-20T07:02:28;4.33;;;2.00;;
73816;SDS011;62146;53.232;-1.304;2022-11-20T07:04:55;4.07;;;2.05;;
73816;SDS011;62146;53.232;-1.304;2022-11-20T07:07:21;4.40;;;2.30;;
73816;SDS011;62146;53.232;-1.304;2022-11-20T07:09:48;4.38;;;2.28;;
73816;SDS011;62146;53.232;-1.304;2022-11-20T07:12:14;4.78;;;2.40;;
73816;SDS011;62146;53.232;-1.304;2022-11-20T07:14:41;5.60;;;2.77;;
73816;SDS011;62146;53.232;-1.304;2022-11-20T07:17:07;4.60;;;2.30;;
73816;SDS011;62146;53.232;-1.304;2022-11-20T07:19:34;5.15;;;2.40;;
73816;SDS011;62146;53.232;-1.304;2022-11-20T07:22:00;5.38;;;2.50;;
73816;SDS011;62146;53.232;-1.304;2022-11-20T07:24:27;4.82;;;2.47;;
73816;SDS011;62146;53.232;-1.304;2022-11-20T07:26:53;5.57;;;2.80;;
73816;SDS011;62146;53.232;-1.304;2022-11-20T07:29:20;4.55;;;2.42;;
73816;SDS011;62146;53.232;-1.304;2022-11-20T07:31:47;4.45;;;2.60;;
73816;SDS011;62146;53.232;-1.304;2022-11-20T07:34:13;5.25;;;2.60;;
73816;SDS011;62146;53.232;-1.304;2022-11-20T07:36:40;4.85;;;2.70;;
73816;SDS011;62146;53.232;-1.304;2022-11-20T07:39:06;5.27;;;2.73;;
73816;SDS011;62146;53.232;-1.304;2022-11-20T07:41:33;5.60;;;2.92;;
73816;SDS011;62146;53.232;-1.304;2022-11-20T07:43:59;6.45;;;3.03;;
73816;SDS011;62146;53.232;-1.304;2022-11-20T07:46:26;5.63;;;3.03;;
73816;SDS011;62146;53.232;-1.304;2022-11-20T07:48:52;5.13;;;3.08;;
73816;SDS011;62146;53.232;-1.304;2022-11-20T07:51:19;6.40;;;3.20;;
73816;SDS011;62146;53.232;-1.304;2022-11-20T07:53:46;5.60;;;3.03;;
73816;SDS011;62146;53.232;-1.304;2022-11-20T07:56:12;6.75;;;3.08;;
73816;SDS011;62146;53.232;-1.304;2022-11-20T07:58:40;5.78;;;3.35;;
73816;SDS011;62146;53.232;-1.304;2022-11-20T08:01:07;6.45;;;3.75;;
73816;SDS011;62146;53.232;-1.304;2022-11-20T08:03:34;6.27;;;3.83;;
73816;SDS011;62146;53.232;-1.304;2022-11-20T08:06:03;6.82;;;3.55;;
73816;SDS011;62146;53.232;-1.304;2022-11-20T08:08:30;7.07;;;3.38;;
73816;SDS011;62146;53.232;-1.304;2022-11-20T08:11:00;6.22;;;3.40;;
73816;SDS011;62146;53.232;-1.304;2022-11-20T08:13:46;6.68;;;3.55;;
73816;SDS011;62146;53.232;-1.304;2022-11-20T08:16:31;6.47;;;3.50;;
73816;SDS011;62146;53.232;-1.304;2022-11-20T08:18:58;6.15;;;3.10;;
73816;SDS011;62146;53.232;-1.304;2022-11-20T08:21:24;6.95;;;3.75;;
73816;SDS011;62146;53.232;-1.304;2022-11-20T08:23:51;6.90;;;3.53;;
73816;SDS011;62146;53.232;-1.304;2022-11-20T08:26:17;5.57;;;3.22;;
73816;SDS011;62146;53.232;-1.304;2022-11-20T08:28:44;5.60;;;3.37;;
73816;SDS011;62146;53.232;-1.304;2022-11-20T08:31:11;6.50;;;3.65;;
73816;SDS011;62146;53.232;-1.304;2022-11-20T08:33:37;7.18;;;3.67;;
73816;SDS011;62146;53.232;-1.304;2022-11-20T08:36:04;8.50;;;3.50;;
73816;SDS011;62146;53.232;-1.304;2022-11-20T08:38:32;7.93;;;3.30;;
73816;SDS011;62146;53.232;-1.304;2022-11-20T08:41:00;7.03;;;3.30;;
73816;SDS011;62146;53.232;-1.304;2022-11-20T08:43:46;9.02;;;3.50;;
73816;SDS011;62146;53.232;-1.304;2022-11-20T08:46:13;8.18;;;3.28;;
73816;SDS011;62146;53.232;-1.304;2022-11-20T08:48:40;7.97;;;3.20;;
73816;SDS011;62146;53.232;-1.304;2022-11-20T08:51:06;8.48;;;3.33;;
73816;SDS011;62146;53.232;-1.304;2022-11-20T08:53:33;6.93;;;3.00;;
73816;SDS011;62146;53.232;-1.304;2022-11-20T08:55:59;7.40;;;2.83;;
73816;SDS011;62146;53.232;-1.304;2022-11-20T08:58:26;7.45;;;2.90;;
73816;SDS011;62146;53.232;-1.304;2022-11-20T09:00:52;7.65;;;3.22;;
73816;SDS011;62146;53.232;-1.304;2022-11-20T09:03:19;8.60;;;3.20;;
73816;SDS011;62146;53.232;-1.304;2022-11-20T09:05:46;8.47;;;2.90;;
73816;SDS011;62146;53.232;-1.304;2022-11-20T09:08:12;8.65;;;2.70;;
73816;SDS011;62146;53.232;-1.304;2022-11-20T09:10:39;6.93;;;2.78;;
73816;SDS011;62146;53.232;-1.304;2022-11-20T09:13:06;7.57;;;2.70;;
73816;SDS011;62146;53.232;-1.304;2022-11-20T09:15:32;10.13;;;2.95;;
73816;SDS011;62146;53.232;-1.304;2022-11-20T09:18:01;7.87;;;2.93;;
73816;SDS011;62146;53.232;-1.304;2022-11-20T09:20:29;6.28;;;2.78;;
73816;SDS011;62146;53.232;-1.304;2022-11-20T09:22:56;8.63;;;3.10;;
73816;SDS011;62146;53.232;-1.304;2022-11-20T09:25:23;10.93;;;2.80;;
73816;SDS011;62146;53.232;-1.304;2022-11-20T09:27:59;6.63;;;2.78;;
73816;SDS011;62146;53.232;-1.304;2022-11-20T09:30:26;7.40;;;2.57;;
73816;SDS011;62146;53.232;-1.304;2022-11-20T09:32:53;10.82;;;3.80;;
73816;SDS011;62146;53.232;-1.304;2022-11-20T09:35:20;9.10;;;3.10;;
73816;SDS011;62146;53.232;-1.304;2022-11-20T09:37:46;6.43;;;2.45;;
73816;SDS011;62146;53.232;-1.304;2022-11-20T09:40:23;8.00;;;2.90;;
73816;SDS011;62146;53.232;-1.304;2022-11-20T09:45:54;9.85;;;2.90;;
73816;SDS011;62146;53.232;-1.304;2022-11-20T09:54:19;8.93;;;2.67;;
73816;SDS011;62146;53.232;-1.304;2022-11-20T09:56:50;10.83;;;3.10;;
73816;SDS011;62146;53.232;-1.304;2022-11-20T10:02:16;8.30;;;2.85;;
73816;SDS011;62146;53.232;-1.304;2022-11-20T10:04:44;10.30;;;2.72;;
73816;SDS011;62146;53.232;-1.304;2022-11-20T10:07:20;10.50;;;2.72;;
73816;SDS011;62146;53.232;-1.304;2022-11-20T10:09:58;9.77;;;2.90;;
73816;SDS011;62146;53.232;-1.304;2022-11-20T10:12:27;8.43;;;2.60;;
73816;SDS011;62146;53.232;-1.304;2022-11-20T10:15:22;11.38;;;2.70;;
73816;SDS011;62146;53.232;-1.304;2022-11-20T10:18:11;10.98;;;2.83;;
73816;SDS011;62146;53.232;-1.304;2022-11-20T10:21:00;10.10;;;2.80;;
73816;SDS011;62146;53.232;-1.304;2022-11-20T10:26:44;11.70;;;2.78;;
73816;SDS011;62146;53.232;-1.304;2022-11-20T10:29:43;12.15;;;2.90;;
73816;SDS011;62146;53.232;-1.304;2022-11-20T10:32:17;16.58;;;3.13;;
73816;SDS011;62146;53.232;-1.304;2022-11-20T10:34:57;12.30;;;2.75;;
73816;SDS011;62146;53.232;-1.304;2022-11-20T10:37:31;9.87;;;2.57;;
73816;SDS011;62146;53.232;-1.304;2022-11-20T10:43:03;11.23;;;2.45;;
73816;SDS011;62146;53.232;-1.304;2022-11-20T10:48:27;10.93;;;2.60;;
73816;SDS011;62146;53.232;-1.304;2022-11-20T10:56:44;10.18;;;2.63;;
73816;SDS011;62146;53.232;-1.304;2022-11-20T11:01:57;10.30;;;2.50;;
73816;SDS011;62146;53.232;-1.304;2022-11-20T11:06:57;7.53;;;2.78;;
73816;SDS011;62146;53.232;-1.304;2022-11-20T11:09:36;12.15;;;2.50;;
73816;SDS011;62146;53.232;-1.304;2022-11-20T11:12:10;8.63;;;2.35;;
73816;SDS011;62146;53.232;-1.304;2022-11-20T11:14:44;10.10;;;2.30;;
73816;SDS011;62146;53.232;-1.304;2022-11-20T11:20:36;11.90;;;2.60;;
73816;SDS011;62146;53.232;-1.304;2022-11-20T11:22:49;10.90;;;2.47;;
73816;SDS011;62146;53.232;-1.304;2022-11-20T11:27:50;10.88;;;2.70;;
73816;SDS011;62146;53.232;-1.304;2022-11-20T11:30:18;8.87;;;2.13;;
73816;SDS011;62146;53.232;-1.304;2022-11-20T11:32:46;9.40;;;2.17;;
73816;SDS011;62146;53.232;-1.304;2022-11-20T11:35:23;14.38;;;3.00;;
73816;SDS011;62146;53.232;-1.304;2022-11-20T11:37:52;8.63;;;2.53;;
73816;SDS011;62146;53.232;-1.304;2022-11-20T11:40:22;12.13;;;2.35;;
73816;SDS011;62146;53.232;-1.304;2022-11-20T11:42:56;13.57;;;2.47;;
73816;SDS011;62146;53.232;-1.304;2022-11-20T11:45:25;12.07;;;2.53;;
73816;SDS011;62146;53.232;-1.304;2022-11-20T11:47:53;12.60;;;2.47;;
73816;SDS011;62146;53.232;-1.304;2022-11-20T11:50:26;11.98;;;2.10;;
73816;SDS011;62146;53.232;-1.304;2022-11-20T11:53:14;12.13;;;2.33;;
73816;SDS011;62146;53.232;-1.304;2022-11-20T11:55:48;14.73;;;2.63;;
73816;SDS011;62146;53.232;-1.304;2022-11-20T12:07:03;8.52;;;2.17;;
73816;SDS011;62146;53.232;-1.304;2022-11-20T12:10:14;11.83;;;2.37;;
73816;SDS011;62146;53.232;-1.304;2022-11-20T12:12:46;9.55;;;2.20;;
73816;SDS011;62146;53.232;-1.304;2022-11-20T12:15:23;11.80;;;2.55;;
73816;SDS011;62146;53.232;-1.304;2022-11-20T12:17:54;11.80;;;1.95;;
73816;SDS011;62146;53.232;-1.304;2022-11-20T12:20:22;11.18;;;2.15;;
73816;SDS011;62146;53.232;-1.304;2022-11-20T12:25:44;10.98;;;1.88;;
73816;SDS011;62146;53.232;-1.304;2022-11-20T12:34:00;8.73;;;1.92;;
73816;SDS011;62146;53.232;-1.304;2022-11-20T12:58:40;7.03;;;1.60;;
73816;SDS011;62146;53.232;-1.304;2022-11-20T13:04:18;8.13;;;1.50;;
73816;SDS011;62146;53.232;-1.304;2022-11-20T13:07:01;10.15;;;1.73;;
73816;SDS011;62146;53.232;-1.304;2022-11-20T13:09:30;9.85;;;2.00;;
73816;SDS011;62146;53.232;-1.304;2022-11-20T13:12:08;6.72;;;1.38;;
73816;SDS011;62146;53.232;-1.304;2022-11-20T13:20:04;7.30;;;1.52;;
73816;SDS011;62146;53.232;-1.304;2022-11-20T13:25:27;10.15;;;1.90;;
73816;SDS011;62146;53.232;-1.304;2022-11-20T13:28:44;10.30;;;1.80;;
73816;SDS011;62146;53.232;-1.304;2022-11-20T13:30:49;10.10;;;1.70;;
73816;SDS011;62146;53.232;-1.304;2022-11-20T13:33:30;9.88;;;1.73;;
73816;SDS011;62146;53.232;-1.304;2022-11-20T13:36:03;10.90;;;2.00;;
73816;SDS011;62146;53.232;-1.304;2022-11-20T13:38:46;9.88;;;1.70;;
73816;SDS011;62146;53.232;-1.304;2022-11-20T13:46:37;11.35;;;1.90;;
73816;SDS011;62146;53.232;-1.304;2022-11-20T13:49:06;9.38;;;2.05;;
73816;SDS011;62146;53.232;-1.304;2022-11-20T13:51:37;6.40;;;1.48;;
73816;SDS011;62146;53.232;-1.304;2022-11-20T13:57:09;11.87;;;1.80;;
73816;SDS011;62146;53.232;-1.304;2022-11-20T14:02:25;11.95;;;2.00;;
73816;SDS011;62146;53.232;-1.304;2022-11-20T14:04:54;12.57;;;2.00;;
73816;SDS011;62146;53.232;-1.304;2022-11-20T14:07:25;12.75;;;2.10;;
73816;SDS011;62146;53.232;-1.304;2022-11-20T14:10:03;10.93;;;2.27;;
73816;SDS011;62146;53.232;-1.304;2022-11-20T14:12:32;10.45;;;1.80;;
73816;SDS011;62146;53.232;-1.304;2022-11-20T14:14:59;10.63;;;2.08;;
73816;SDS011;62146;53.232;-1.304;2022-11-20T14:17:33;6.65;;;1.77;;
73816;SDS011;62146;53.232;-1.304;2022-11-20T14:20:05;6.90;;;1.90;;
73816;SDS011;62146;53.232;-1.304;2022-11-20T14:22:38;10.40;;;1.90;;
73816;SDS011;62146;53.232;-1.304;2022-11-20T14:27:42;8.82;;;2.22;;
73816;SDS011;62146;53.232;-1.304;2022-11-20T14:30:14;8.70;;;1.92;;
73816;SDS011;62146;53.232;-1.304;2022-11-20T14:32:43;9.32;;;2.10;;
73816;SDS011;62146;53.232;-1.304;2022-11-20T14:35:19;11.23;;;2.03;;
73816;SDS011;62146;53.232;-1.304;2022-11-20T14:37:50;14.27;;;2.25;;
73816;SDS011;62146;53.232;-1.304;2022-11-20T14:40:30;10.75;;;2.13;;
73816;SDS011;62146;53.232;-1.304;2022-11-20T14:43:04;9.88;;;1.92;;
73816;SDS011;62146;53.232;-1.304;2022-11-20T14:45:44;9.85;;;1.90;;
73816;SDS011;62146;53.232;-1.304;2022-11-20T14:48:15;9.07;;;1.77;;
73816;SDS011;62146;53.232;-1.304;2022-11-20T14:50:42;10.75;;;1.80;;
73816;SDS011;62146;53.232;-1.304;2022-11-20T14:53:08;10.50;;;1.83;;
73816;SDS011;62146;53.232;-1.304;2022-11-20T14:55:36;9.65;;;2.20;;
73816;SDS011;62146;53.232;-1.304;2022-11-20T14:58:05;12.48;;;2.28;;
73816;SDS011;62146;53.232;-1.304;2022-11-20T15:00:53;8.90;;;1.87;;
73816;SDS011;62146;53.232;-1.304;2022-11-20T15:03:21;9.27;;;2.03;;
73816;SDS011;62146;53.232;-1.304;2022-11-20T15:05:54;10.15;;;2.67;;
73816;SDS011;62146;53.232;-1.304;2022-11-20T15:08:20;10.48;;;2.25;;
73816;SDS011;62146;53.232;-1.304;2022-11-20T15:10:48;15.63;;;3.05;;
73816;SDS011;62146;53.232;-1.304;2022-11-20T15:15:49;9.73;;;2.95;;
73816;SDS011;62146;53.232;-1.304;2022-11-20T15:18:19;10.35;;;3.50;;
73816;SDS011;62146;53.232;-1.304;2022-11-20T15:20:50;11.35;;;3.28;;
73816;SDS011;62146;53.232;-1.304;2022-11-20T15:23:18;14.10;;;3.88;;
73816;SDS011;62146;53.232;-1.304;2022-11-20T15:25:45;14.10;;;4.03;;
73816;SDS011;62146;53.232;-1.304;2022-11-20T15:28:18;15.40;;;3.70;;
73816;SDS011;62146;53.232;-1.304;2022-11-20T15:30:47;9.50;;;2.97;;
73816;SDS011;62146;53.232;-1.304;2022-11-20T15:33:15;11.30;;;3.30;;
73816;SDS011;62146;53.232;-1.304;2022-11-20T15:35:43;11.77;;;3.20;;
73816;SDS011;62146;53.232;-1.304;2022-11-20T15:38:10;9.03;;;3.13;;
73816;SDS011;62146;53.232;-1.304;2022-11-20T15:40:37;12.43;;;2.78;;
73816;SDS011;62146;53.232;-1.304;2022-11-20T15:43:04;10.00;;;2.95;;
73816;SDS011;62146;53.232;-1.304;2022-11-20T15:48:08;11.23;;;2.70;;
73816;SDS011;62146;53.232;-1.304;2022-11-20T15:50:39;10.67;;;3.03;;
73816;SDS011;62146;53.232;-1.304;2022-11-20T15:53:13;8.27;;;2.70;;
73816;SDS011;62146;53.232;-1.304;2022-11-20T15:55:40;10.10;;;2.78;;
73816;SDS011;62146;53.232;-1.304;2022-11-20T15:58:06;13.48;;;2.85;;
73816;SDS011;62146;53.232;-1.304;2022-11-20T16:00:33;10.27;;;2.83;;
73816;SDS011;62146;53.232;-1.304;2022-11-20T16:02:59;12.43;;;3.13;;
73816;SDS011;62146;53.232;-1.304;2022-11-20T16:05:29;9.07;;;2.92;;
73816;SDS011;62146;53.232;-1.304;2022-11-20T16:07:56;9.70;;;2.55;;
73816;SDS011;62146;53.232;-1.304;2022-11-20T16:10:23;9.75;;;2.25;;
73816;SDS011;62146;53.232;-1.304;2022-11-20T16:12:50;6.63;;;1.88;;
73816;SDS011;62146;53.232;-1.304;2022-11-20T16:15:35;8.47;;;2.23;;
73816;SDS011;62146;53.232;-1.304;2022-11-20T16:18:15;8.80;;;2.67;;
73816;SDS011;62146;53.232;-1.304;2022-11-20T16:20:47;8.30;;;2.42;;
73816;SDS011;62146;53.232;-1.304;2022-11-20T16:23:18;7.68;;;2.50;;
73816;SDS011;62146;53.232;-1.304;2022-11-20T16:25:46;7.28;;;2.35;;
73816;SDS011;62146;53.232;-1.304;2022-11-20T16:28:13;7.70;;;2.40;;
73816;SDS011;62146;53.232;-1.304;2022-11-20T16:30:44;7.53;;;2.47;;
73816;SDS011;62146;53.232;-1.304;2022-11-20T16:33:15;7.80;;;2.60;;
73816;SDS011;62146;53.232;-1.304;2022-11-20T16:35:43;7.80;;;2.63;;
73816;SDS011;62146;53.232;-1.304;2022-11-20T16:38:10;10.52;;;2.65;;
73816;SDS011;62146;53.232;-1.304;2022-11-20T16:40:36;8.33;;;2.23;;